Time;durP1;ratioP1;P1;durP2;ratioP2;P2;SDS_P1;SDS_P2;PMS_P1;PMS_P2;Temp;Humidity;BMP_temperature;BMP_pressure;BME280_temperature;BME280_humidity;BME280_pressure;Samples;Min_cycle;Max_cycle;Signal;HPM_P1;HPM_P2
2021/12/29 00:00:27;;;;;;;156.98;55.28;;;1.10;99.90;;;-0.63;100.00;98852.69;6210862;23;20015;-75
2021/12/29 00:02:56;;;;;;;155.95;55.22;;;1.20;99.90;;;-0.63;100.00;98859.56;6203517;22;20008;-79
2021/12/29 00:05:23;;;;;;;176.65;57.33;;;1.20;99.90;;;-0.57;100.00;98868.91;6207414;22;20000;-74
2021/12/29 00:07:49;;;;;;;169.60;56.88;;;1.30;99.90;;;-0.53;100.00;98867.91;6216158;22;20000;-75
2021/12/29 00:10:15;;;;;;;177.07;57.50;;;1.30;99.90;;;-0.49;100.00;98877.25;6192433;22;20043;-76
2021/12/29 00:12:49;;;;;;;177.38;58.63;;;1.30;99.90;;;-0.43;100.00;98880.50;6204937;22;20016;-76
2021/12/29 00:15:19;;;;;;;182.65;58.33;;;1.30;99.90;;;-0.42;100.00;98886.50;6216892;22;20402;-76
2021/12/29 00:17:46;;;;;;;177.80;59.17;;;1.40;99.90;;;-0.37;100.00;98882.03;6180412;22;20079;-75
2021/12/29 00:20:16;;;;;;;178.98;57.78;;;1.40;99.90;;;-0.37;100.00;98887.22;6237626;22;20000;-75
2021/12/29 00:22:43;;;;;;;184.68;59.03;;;1.40;99.90;;;-0.39;100.00;98896.75;6192003;22;20012;-76
2021/12/29 00:25:10;;;;;;;175.25;56.83;;;1.40;99.90;;;-0.32;100.00;98898.28;6178840;22;20435;-75
2021/12/29 00:27:37;;;;;;;178.15;58.85;;;1.40;99.90;;;-0.35;100.00;98898.34;6196451;22;20012;-75
2021/12/29 00:30:06;;;;;;;172.93;59.58;;;1.40;99.90;;;-0.28;100.00;98905.03;6179946;22;20337;-76
2021/12/29 00:32:32;;;;;;;178.43;57.47;;;1.50;99.90;;;-0.26;100.00;98907.56;6174643;22;20361;-76
2021/12/29 00:34:58;;;;;;;176.10;58.17;;;1.40;99.90;;;-0.33;100.00;98916.41;6129388;23;20008;-75
2021/12/29 00:37:26;;;;;;;186.25;57.95;;;1.50;99.90;;;-0.33;100.00;98921.59;6190714;23;20012;-76
2021/12/29 00:39:52;;;;;;;179.82;57.67;;;1.50;99.90;;;-0.24;100.00;98924.75;6176237;23;20364;-76
2021/12/29 00:42:19;;;;;;;180.68;59.47;;;1.50;99.90;;;-0.23;100.00;98925.59;6180965;22;20015;-76
2021/12/29 00:44:45;;;;;;;187.68;58.97;;;1.50;99.90;;;-0.22;100.00;98928.13;6182814;22;20012;-76
2021/12/29 00:47:12;;;;;;;195.38;59.80;;;1.60;99.90;;;-0.19;100.00;98936.66;6202246;22;20004;-75
2021/12/29 00:49:40;;;;;;;163.43;51.85;;;1.50;99.90;;;-0.23;100.00;98935.94;6182589;22;20331;-76
2021/12/29 00:52:07;;;;;;;184.50;57.35;;;1.50;99.90;;;-0.21;100.00;98934.97;6188371;22;20111;-75
2021/12/29 00:54:39;;;;;;;123.05;38.80;;;1.60;99.90;;;-0.29;100.00;98939.53;6140788;22;20012;-76
2021/12/29 00:57:06;;;;;;;178.45;54.13;;;1.60;99.90;;;-0.23;100.00;98944.53;6188298;22;20078;-76
2021/12/29 00:59:32;;;;;;;191.77;56.90;;;1.60;99.90;;;-0.18;100.00;98956.47;6206642;22;19996;-76
2021/12/29 01:01:58;;;;;;;169.50;53.47;;;1.60;99.90;;;-0.16;100.00;98962.44;6114297;23;20054;-76
2021/12/29 01:04:25;;;;;;;185.65;58.10;;;1.60;99.90;;;-0.06;100.00;98972.47;6172790;22;20023;-76
2021/12/29 01:06:52;;;;;;;182.18;55.47;;;1.70;99.90;;;-0.05;100.00;98973.31;6205717;22;24257;-76
2021/12/29 01:09:18;;;;;;;193.88;60.53;;;1.70;99.90;;;-0.01;100.00;98977.50;6180687;22;20011;-76
2021/12/29 01:11:44;;;;;;;196.60;58.53;;;1.70;99.90;;;0.03;100.00;98971.34;6191867;22;20039;-75
2021/12/29 01:14:21;;;;;;;211.05;61.58;;;1.70;99.90;;;0.05;100.00;98979.91;6154858;22;20008;-76
2021/12/29 01:16:48;;;;;;;199.30;60.83;;;1.70;99.90;;;0.08;100.00;98982.38;6157769;22;20008;-76
2021/12/29 01:19:19;;;;;;;202.27;63.15;;;1.80;99.90;;;0.12;100.00;98990.91;6197242;22;20450;-76
2021/12/29 01:21:50;;;;;;;214.93;62.53;;;1.80;99.90;;;0.09;100.00;98986.66;6164314;22;20007;-76
2021/12/29 01:24:18;;;;;;;191.90;57.58;;;1.70;99.90;;;-0.10;100.00;98981.22;6161303;22;20072;-76
2021/12/29 01:26:47;;;;;;;198.70;60.65;;;1.70;99.90;;;-0.09;100.00;98979.47;6230580;22;20004;-76
2021/12/29 01:29:14;;;;;;;203.18;59.22;;;1.70;99.90;;;-0.07;100.00;98981.09;6151621;23;20107;-76
2021/12/29 01:31:42;;;;;;;204.50;59.90;;;1.70;99.90;;;-0.08;100.00;98981.19;6193941;22;20039;-76
2021/12/29 01:34:08;;;;;;;228.70;62.70;;;1.70;99.90;;;-0.07;100.00;98982.84;6181123;22;20004;-76
2021/12/29 01:36:37;;;;;;;217.50;59.47;;;1.80;99.90;;;0.01;100.00;98983.47;6206405;22;20043;-76
2021/12/29 01:39:11;;;;;;;226.48;63.22;;;1.70;99.90;;;0.00;100.00;98986.97;6180934;22;20487;-75
2021/12/29 01:41:38;;;;;;;207.85;62.17;;;1.80;99.90;;;0.05;100.00;98994.59;6190544;22;20004;-76
2021/12/29 01:44:08;;;;;;;246.63;67.32;;;1.70;99.90;;;0.07;100.00;99005.72;6184656;22;20591;-76
2021/12/29 01:46:34;;;;;;;226.30;63.03;;;1.80;99.90;;;0.04;100.00;99018.75;6212852;22;20006;-76
2021/12/29 01:49:00;;;;;;;239.38;67.55;;;1.70;99.90;;;0.04;100.00;99011.81;6202525;22;20065;-75
2021/12/29 01:51:26;;;;;;;244.50;68.88;;;1.80;99.90;;;0.01;100.00;99011.94;6163466;23;20020;-76
2021/12/29 01:54:14;;;;;;;209.82;58.88;;;1.70;99.90;;;-0.04;100.00;99017.25;6193634;22;20769;-76
2021/12/29 01:56:41;;;;;;;213.70;61.92;;;1.70;99.90;;;-0.07;100.00;99016.50;6180888;22;20091;-76
2021/12/29 01:59:07;;;;;;;196.90;56.13;;;1.70;99.90;;;-0.16;100.00;99017.63;6203318;22;20138;-75
2021/12/29 02:01:33;;;;;;;229.30;63.42;;;1.70;99.90;;;-0.13;100.00;99017.53;6111547;23;20045;-75
2021/12/29 02:04:00;;;;;;;263.38;66.15;;;1.70;99.90;;;-0.05;100.00;99015.53;6173410;22;20004;-75
2021/12/29 02:06:26;;;;;;;246.15;66.00;;;1.70;99.90;;;-0.01;100.00;99024.06;6200180;22;20012;-76
2021/12/29 02:08:55;;;;;;;255.40;65.53;;;1.70;99.90;;;-0.04;100.00;99027.59;6169812;22;20341;-75
2021/12/29 02:11:28;;;;;;;254.00;65.20;;;1.70;99.90;;;-0.09;100.00;99024.28;6154699;22;20016;-76
2021/12/29 02:13:59;;;;;;;236.43;61.28;;;1.70;99.90;;;-0.12;100.00;99028.72;6182940;22;20004;-76
2021/12/29 02:16:26;;;;;;;284.73;65.00;;;1.70;99.90;;;-0.05;100.00;99038.00;6135466;23;20666;-76
2021/12/29 02:18:59;;;;;;;157.75;40.53;;;1.70;99.90;;;-0.12;100.00;99033.91;6194521;22;20012;-76
2021/12/29 02:21:28;;;;;;;297.48;67.60;;;1.70;99.90;;;-0.05;100.00;99035.41;6184499;22;20004;-76
2021/12/29 02:26:33;;;;;;;282.05;67.00;;;1.70;99.90;;;-0.07;100.00;99030.28;6147158;22;20004;-76
2021/12/29 02:29:03;;;;;;;312.80;66.82;;;1.70;99.90;;;-0.01;100.00;99029.25;6142204;22;20399;-76
2021/12/29 02:31:29;;;;;;;306.58;67.70;;;1.70;99.90;;;-0.03;100.00;99029.28;6197401;22;20714;-76
2021/12/29 02:33:59;;;;;;;270.02;58.80;;;1.80;99.90;;;-0.03;100.00;99020.69;6167039;22;20011;-76
2021/12/29 02:36:27;;;;;;;293.63;68.97;;;1.70;99.90;;;-0.06;100.00;99029.38;6147198;22;20009;-76
2021/12/29 02:38:55;;;;;;;304.20;63.50;;;1.70;99.90;;;-0.08;100.00;99035.50;6216089;22;20347;-76
2021/12/29 02:41:25;;;;;;;305.05;67.57;;;1.70;99.90;;;-0.04;100.00;99026.75;6214807;22;20375;-76
2021/12/29 02:44:01;;;;;;;282.80;65.38;;;1.70;99.90;;;-0.05;100.00;99040.59;6180580;22;20000;-76
2021/12/29 02:46:29;;;;;;;284.65;60.72;;;1.70;99.90;;;-0.12;100.00;99033.91;6180653;22;20015;-76
2021/12/29 02:49:02;;;;;;;305.98;65.97;;;1.70;99.90;;;-0.06;100.00;99039.75;6180606;22;20067;-76
2021/12/29 02:51:35;;;;;;;303.58;67.65;;;1.70;99.90;;;0.01;100.00;99032.63;6143339;22;20446;-76
2021/12/29 02:54:03;;;;;;;313.35;65.38;;;1.70;99.90;;;-0.07;100.00;99038.03;6195319;22;20087;-75
2021/12/29 02:56:29;;;;;;;248.55;57.38;;;1.70;99.90;;;-0.12;100.00;99033.91;6151912;22;20026;-76
2021/12/29 02:58:57;;;;;;;296.83;65.72;;;1.70;99.90;;;-0.06;100.00;99029.38;6167014;22;20007;-75
2021/12/29 03:01:26;;;;;;;306.15;68.05;;;1.70;99.90;;;0.01;100.00;99030.03;6178930;22;19996;-76
2021/12/29 03:03:52;;;;;;;291.52;58.00;;;1.70;99.90;;;-0.01;100.00;99031.84;6127700;22;20026;-76
2021/12/29 03:06:19;;;;;;;313.25;67.13;;;1.80;99.90;;;0.04;100.00;99050.66;6170579;22;20510;-75
2021/12/29 03:08:45;;;;;;;341.30;66.22;;;1.70;99.90;;;-0.02;100.00;99040.50;6142388;22;20015;-76
2021/12/29 03:11:12;;;;;;;312.45;66.57;;;1.80;99.90;;;0.08;100.00;99047.06;6172502;22;20023;-76
2021/12/29 03:13:42;;;;;;;323.27;59.95;;;1.80;99.90;;;0.04;100.00;99035.13;6217323;22;20044;-76
2021/12/29 03:16:10;;;;;;;322.17;66.70;;;1.80;99.90;;;0.05;100.00;99051.50;6160933;22;20004;-76
2021/12/29 03:18:36;;;;;;;266.48;55.55;;;1.70;99.90;;;-0.09;100.00;99046.75;6182320;22;20493;-76
2021/12/29 03:21:04;;;;;;;326.60;69.97;;;1.70;99.90;;;-0.01;100.00;99048.19;6179405;22;20000;-76
2021/12/29 03:23:32;;;;;;;294.67;63.20;;;1.70;99.90;;;-0.12;100.00;99039.09;6240210;22;20008;-76
2021/12/29 03:25:59;;;;;;;287.20;64.30;;;1.70;99.90;;;-0.05;100.00;99040.59;6195660;22;20018;-76
2021/12/29 03:28:26;;;;;;;357.00;66.93;;;1.70;99.90;;;-0.09;100.00;99029.47;6129191;22;20034;-76
2021/12/29 03:30:54;;;;;;;235.93;51.30;;;1.70;99.90;;;-0.14;100.00;99033.94;6191739;22;20015;-75
2021/12/29 03:33:25;;;;;;;281.98;62.60;;;1.70;99.90;;;-0.07;100.00;99039.78;6161084;23;20067;-76
2021/12/29 03:36:01;;;;;;;314.60;64.10;;;1.60;99.90;;;-0.03;100.00;99051.72;6165695;22;20014;-76
2021/12/29 03:38:29;;;;;;;273.05;62.28;;;1.70;99.90;;;-0.09;100.00;99055.34;6172301;22;20042;-76
2021/12/29 03:40:57;;;;;;;283.20;57.30;;;1.70;99.90;;;-0.12;100.00;99058.03;6194859;22;20082;-76
2021/12/29 03:43:24;;;;;;;307.17;63.70;;;1.70;99.90;;;-0.03;100.00;99070.69;6201217;22;20068;-76
2021/12/29 03:45:52;;;;;;;304.20;64.88;;;1.70;99.90;;;-0.02;100.00;99063.78;6165744;22;20008;-76
2021/12/29 03:48:24;;;;;;;276.98;57.97;;;1.70;99.90;;;-0.03;100.00;99068.09;6163135;22;20085;-75
2021/12/29 03:50:50;;;;;;;307.05;64.88;;;1.70;99.90;;;0.06;100.00;99071.31;6177347;22;20020;-75
2021/12/29 03:53:16;;;;;;;320.73;62.22;;;1.80;99.90;;;0.10;100.00;99072.91;6164557;22;20019;-76
2021/12/29 03:55:45;;;;;;;332.20;64.43;;;1.80;99.90;;;0.13;100.00;99071.09;6204800;22;20019;-75
2021/12/29 03:58:16;;;;;;;316.50;64.93;;;1.80;99.90;;;0.15;100.00;99079.66;6194253;22;20011;-75
2021/12/29 04:00:42;;;;;;;330.23;67.18;;;1.80;99.90;;;0.19;100.00;99070.03;6183197;22;20516;-75
2021/12/29 04:03:07;;;;;;;330.80;65.90;;;1.80;99.90;;;0.16;100.00;99075.31;6201838;22;20046;-76
2021/12/29 04:05:34;;;;;;;338.75;65.57;;;1.90;99.90;;;0.15;100.00;99078.78;6174168;22;20000;-75
2021/12/29 04:08:02;;;;;;;342.17;66.47;;;1.90;99.90;;;0.12;100.00;99084.91;6190677;22;20442;-75
2021/12/29 04:10:29;;;;;;;332.38;66.80;;;1.80;99.90;;;0.11;100.00;99088.41;6194298;22;20351;-75
2021/12/29 04:12:55;;;;;;;346.08;65.40;;;1.80;99.90;;;0.16;100.00;99096.88;6129058;22;20008;-75
2021/12/29 04:15:24;;;;;;;316.40;65.28;;;1.80;99.90;;;0.10;100.00;99097.06;6168287;22;20023;-75
2021/12/29 04:17:57;;;;;;;322.08;66.72;;;1.80;99.90;;;0.10;100.00;99099.63;6191937;22;20430;-75
2021/12/29 04:23:17;;;;;;;344.25;64.28;;;1.80;99.90;;;0.07;100.00;99107.50;6234568;22;20350;-75
2021/12/29 04:25:48;;;;;;;343.38;65.32;;;1.80;99.90;;;0.09;100.00;99115.22;6163440;22;20004;-76
2021/12/29 04:28:20;;;;;;;341.27;64.25;;;1.80;99.90;;;0.09;100.00;99116.06;6193373;22;20000;-76
2021/12/29 04:30:57;;;;;;;274.67;52.97;;;1.80;99.90;;;0.02;100.00;99124.06;6218920;22;20020;-75
2021/12/29 04:33:28;;;;;;;322.05;64.68;;;1.80;99.90;;;0.09;100.00;99123.00;6175101;23;20473;-75
2021/12/29 04:35:55;;;;;;;342.60;65.75;;;1.80;99.90;;;0.13;100.00;99129.75;6148781;22;20440;-75
2021/12/29 04:38:23;;;;;;;303.40;55.72;;;1.80;99.90;;;0.05;100.00;99129.16;6138718;22;20103;-75
2021/12/29 04:40:53;;;;;;;354.35;65.22;;;1.80;99.90;;;0.12;100.00;99128.91;6204654;22;20031;-75
2021/12/29 04:43:20;;;;;;;389.65;66.40;;;1.90;99.90;;;0.14;100.00;99132.31;6178990;22;20096;-75
2021/12/29 04:45:47;;;;;;;370.92;65.53;;;1.90;99.90;;;0.17;100.00;99131.34;6188391;23;20019;-75
2021/12/29 04:48:14;;;;;;;332.40;61.15;;;1.90;99.90;;;0.04;100.00;99143.81;6150707;22;20437;-75
2021/12/29 04:51:05;;;;;;;361.50;64.88;;;1.80;99.90;;;0.03;100.00;99143.88;6163574;22;20346;-75
2021/12/29 04:53:33;;;;;;;309.10;61.78;;;1.80;99.90;;;0.08;100.00;99144.56;6130901;22;19996;-76
2021/12/29 04:55:59;;;;;;;369.45;63.22;;;1.80;99.90;;;0.09;100.00;99152.31;6182417;22;20024;-75
2021/12/29 04:58:25;;;;;;;403.25;68.97;;;1.90;99.90;;;0.13;100.00;99166.00;6215661;22;20096;-75
2021/12/29 05:00:54;;;;;;;396.95;66.05;;;1.80;99.90;;;0.18;100.00;99157.22;6204556;22;20024;-75
2021/12/29 05:03:21;;;;;;;401.30;61.55;;;1.90;99.90;;;0.12;100.00;99148.78;6178764;22;20011;-75
2021/12/29 05:08:33;;;;;;;306.48;49.22;;;1.80;99.90;;;-0.01;100.00;99172.41;6182339;22;20070;-75
2021/12/29 05:11:03;;;;;;;365.00;64.07;;;1.90;99.90;;;0.11;100.00;99165.19;6182161;22;20031;-75
2021/12/29 05:13:33;;;;;;;378.48;66.13;;;1.80;99.90;;;0.04;100.00;99172.28;6184663;22;20046;-75
2021/12/29 05:15:59;;;;;;;326.27;53.50;;;1.80;99.90;;;-0.02;100.00;99180.25;6168144;23;20000;-75
2021/12/29 05:18:31;;;;;;;391.02;65.43;;;1.80;99.90;;;0.04;100.00;99171.44;6190171;22;20004;-75
2021/12/29 05:21:00;;;;;;;385.10;66.20;;;1.80;99.90;;;0.03;100.00;99183.53;6208477;22;20008;-75
2021/12/29 05:23:26;;;;;;;479.10;69.55;;;1.80;99.90;;;0.05;100.00;99197.28;6156166;23;20056;-75
2021/12/29 05:25:54;;;;;;;436.35;65.55;;;1.80;99.90;;;0.04;100.00;99189.56;6159559;22;20019;-75
2021/12/29 05:28:23;;;;;;;450.38;68.57;;;1.80;99.90;;;0.11;100.00;99186.75;6207518;22;20045;-75
2021/12/29 05:30:51;;;;;;;499.90;70.32;;;1.80;99.90;;;0.10;100.00;99205.75;6203657;22;20610;-75
2021/12/29 05:33:18;;;;;;;488.90;67.47;;;1.80;99.90;;;0.10;100.00;99205.75;6168639;22;20001;-75
2021/12/29 05:35:44;;;;;;;437.27;65.43;;;1.80;99.90;;;0.11;100.00;99210.06;6157785;22;20008;-75
2021/12/29 05:38:10;;;;;;;534.17;67.53;;;1.80;99.90;;;0.03;100.00;99214.59;6239286;22;20020;-75
2021/12/29 05:40:37;;;;;;;570.28;71.53;;;1.90;99.90;;;0.09;100.00;99209.25;6192312;22;20024;-75
2021/12/29 05:43:03;;;;;;;526.17;72.25;;;1.80;99.90;;;0.11;100.00;99222.13;6197170;22;20000;-75
2021/12/29 05:45:32;;;;;;;564.58;68.88;;;1.80;99.90;;;0.05;100.00;99223.16;6183625;22;20011;-75
2021/12/29 05:47:59;;;;;;;534.13;68.65;;;1.80;99.90;;;0.10;100.00;99225.63;6157220;22;20076;-75
2021/12/29 05:50:29;;;;;;;521.92;74.60;;;1.90;99.90;;;0.14;100.00;99224.66;6174683;22;20027;-76
2021/12/29 05:52:56;;;;;;;407.23;50.33;;;1.80;99.90;;;0.04;100.00;99223.19;6162856;22;20004;-75
2021/12/29 05:55:22;;;;;;;532.05;70.13;;;1.80;99.90;;;0.08;100.00;99217.88;6157277;22;20004;-75
2021/12/29 05:57:48;;;;;;;579.83;73.15;;;1.80;99.90;;;0.10;100.00;99213.53;6151953;22;20075;-74
2021/12/29 06:00:18;;;;;;;588.25;75.43;;;1.90;99.90;;;0.11;100.00;99217.81;6178390;22;20003;-75
2021/12/29 06:02:44;;;;;;;564.60;74.25;;;1.80;99.90;;;0.07;100.00;99226.56;6146787;22;20020;-75
2021/12/29 06:05:15;;;;;;;552.58;66.35;;;1.80;99.90;;;-0.03;100.00;99235.47;6182179;22;20087;-75
2021/12/29 06:07:41;;;;;;;553.00;70.43;;;1.80;99.90;;;-0.02;100.00;99244.94;6166080;22;20032;-75
2021/12/29 06:10:09;;;;;;;550.22;72.78;;;1.80;99.90;;;0.00;100.00;99248.34;6219516;22;20016;-75
2021/12/29 06:12:38;;;;;;;770.28;78.18;;;1.80;99.90;;;-0.04;100.00;99249.31;6150479;22;20000;-75
2021/12/29 06:15:06;;;;;;;608.05;74.18;;;1.70;99.90;;;-0.06;100.00;99251.06;6197590;22;20008;-76
2021/12/29 06:17:33;;;;;;;605.50;74.85;;;1.70;99.90;;;-0.02;100.00;99257.88;6152670;22;20004;-75
2021/12/29 06:19:59;;;;;;;668.45;76.90;;;1.80;99.90;;;0.03;100.00;99260.34;6153736;23;20073;-76
2021/12/29 06:22:25;;;;;;;689.35;77.93;;;1.80;99.90;;;0.05;100.00;99253.38;6202007;22;20080;-76
2021/12/29 06:24:52;;;;;;;904.33;88.93;;;1.80;99.90;;;0.05;100.00;99236.09;6196078;22;20003;-76
2021/12/29 06:27:25;;;;;;;668.28;88.05;;;1.80;99.90;;;0.11;100.00;99248.88;6205207;22;19992;-75
2021/12/29 06:29:52;;;;;;;766.00;93.53;;;1.80;99.90;;;0.07;100.00;99255.03;6129439;22;20001;-75
2021/12/29 06:32:19;;;;;;;651.53;79.80;;;1.80;99.90;;;0.11;100.00;99258.34;6205976;22;20307;-75
2021/12/29 06:34:45;;;;;;;700.47;78.38;;;1.80;99.90;;;0.15;100.00;99271.22;6114435;23;20012;-75
2021/12/29 06:37:12;;;;;;;701.88;78.25;;;1.80;99.90;;;0.14;100.00;99289.34;6180197;22;20339;-76
2021/12/29 06:39:45;;;;;;;738.08;77.55;;;1.80;99.90;;;0.16;100.00;99288.41;6166956;22;20008;-75
2021/12/29 06:42:13;;;;;;;739.80;81.35;;;1.80;99.90;;;0.11;100.00;99290.28;6152006;22;20111;-75
2021/12/29 06:44:45;;;;;;;731.72;79.03;;;1.80;99.90;;;0.15;100.00;99289.31;6170703;22;20335;-75
2021/12/29 06:47:12;;;;;;;787.03;79.60;;;1.90;99.90;;;0.17;100.00;99300.50;6158915;22;20012;-75
2021/12/29 06:49:39;;;;;;;902.92;78.35;;;1.90;99.90;;;0.09;100.00;99299.00;6176984;23;20094;-76
2021/12/29 06:52:09;;;;;;;890.67;82.50;;;1.80;99.90;;;0.11;100.00;99305.81;6159078;23;20094;-75
2021/12/29 06:54:38;;;;;;;934.40;84.38;;;1.90;99.90;;;0.15;100.00;99311.75;6227038;22;20075;-75
2021/12/29 06:57:05;;;;;;;1034.22;88.13;;;1.80;99.90;;;0.15;100.00;99309.16;6204894;22;20012;-75
2021/12/29 06:59:31;;;;;;;805.42;78.65;;;1.90;99.90;;;0.17;100.00;99315.16;6169686;22;20004;-75
2021/12/29 07:01:57;;;;;;;973.42;83.68;;;1.90;99.90;;;0.19;100.00;99316.81;6196890;22;20015;-76
2021/12/29 07:04:26;;;;;;;792.78;78.90;;;1.90;99.90;;;0.18;100.00;99320.28;6176210;23;20022;-75
2021/12/29 07:06:53;;;;;;;1195.68;87.38;;;1.90;99.90;;;0.18;100.00;99327.22;6175769;22;20000;-75
2021/12/29 07:09:20;;;;;;;1013.15;86.40;;;1.90;99.90;;;0.23;100.00;99340.03;6216153;22;20004;-76
2021/12/29 07:11:46;;;;;;;1147.10;87.18;;;1.90;99.90;;;0.14;100.00;99326.44;6205615;22;20054;-75
2021/12/29 07:14:13;;;;;;;745.25;76.43;;;1.90;99.90;;;0.23;100.00;99342.63;6171690;22;20004;-75
2021/12/29 07:16:44;;;;;;;1158.13;86.20;;;1.90;99.90;;;0.24;100.00;99340.00;6156443;22;20019;-75
2021/12/29 07:19:11;;;;;;;1113.47;85.53;;;1.90;99.90;;;0.22;100.00;99346.97;6215568;22;20008;-76
2021/12/29 07:21:37;;;;;;;796.03;79.03;;;1.90;99.90;;;0.23;100.00;99365.91;6194008;22;20016;-76
2021/12/29 07:24:04;;;;;;;704.22;77.75;;;1.90;99.90;;;0.25;100.00;99358.97;6175948;23;20046;-76
2021/12/29 07:26:30;;;;;;;1125.03;87.43;;;1.90;99.90;;;0.31;100.00;99369.16;6145240;22;20004;-76
2021/12/29 07:28:59;;;;;;;1051.35;79.75;;;2.00;99.90;;;0.31;100.00;99377.78;6113471;22;20010;-75
2021/12/29 07:31:25;;;;;;;871.15;78.50;;;1.90;99.90;;;0.25;100.00;99384.84;6227123;22;20011;-75
2021/12/29 07:33:52;;;;;;;1014.78;80.65;;;1.90;99.90;;;0.19;100.00;99386.72;6174505;22;20062;-76
2021/12/29 07:36:17;;;;;;;1021.85;82.07;;;1.90;99.90;;;0.19;100.00;99388.44;6169530;22;20000;-76
2021/12/29 07:38:44;;;;;;;967.60;80.80;;;1.90;99.90;;;0.28;100.00;99398.59;6180587;22;20098;-76
2021/12/29 07:41:10;;;;;;;1400.20;92.68;;;2.00;99.90;;;0.32;100.00;99394.16;6207058;22;20051;-76
2021/12/29 07:43:37;;;;;;;970.95;79.75;;;2.00;99.90;;;0.34;100.00;99393.22;6180299;22;20012;-75
2021/12/29 07:46:06;;;;;;;1556.18;98.40;;;2.00;99.90;;;0.35;100.00;99386.31;6135790;23;20320;-76
2021/12/29 07:48:34;;;;;;;1337.18;90.40;;;2.00;99.90;;;0.45;100.00;99381.72;6203213;22;20431;-76
2021/12/29 07:51:07;;;;;;;926.47;78.53;;;2.00;99.90;;;0.47;100.00;99401.50;6185022;22;20099;-76
2021/12/29 07:53:37;;;;;;;1213.53;83.68;;;2.10;99.90;;;0.51;100.00;99397.13;6191260;22;20003;-76
2021/12/29 07:56:06;;;;;;;963.78;77.88;;;2.10;99.90;;;0.53;100.00;99406.53;6160969;22;20027;-76
2021/12/29 07:58:34;;;;;;;1182.13;82.95;;;2.10;99.90;;;0.48;100.00;99397.22;6192205;22;20031;-75
2021/12/29 08:01:01;;;;;;;1314.75;91.25;;;2.10;99.90;;;0.42;100.00;99405.13;6152222;22;20033;-76
2021/12/29 08:03:27;;;;;;;925.88;80.07;;;2.10;99.90;;;0.44;100.00;99400.78;6192325;22;20007;-76
2021/12/29 08:05:53;;;;;;;1096.07;88.03;;;2.10;99.90;;;0.52;100.00;99415.22;6141416;22;20572;-76
2021/12/29 08:08:19;;;;;;;612.80;75.40;;;2.10;99.90;;;0.53;100.00;99423.81;6206168;22;20016;-76
2021/12/29 08:10:45;;;;;;;736.85;75.60;;;2.10;99.90;;;0.46;100.00;99443.00;6166924;22;20031;-76
2021/12/29 08:13:11;;;;;;;766.90;76.57;;;2.10;99.90;;;0.49;100.00;99436.00;6191647;22;19999;-77
2021/12/29 08:15:43;;;;;;;1115.75;86.32;;;2.10;99.90;;;0.49;100.00;99436.00;6209850;22;20014;-76
2021/12/29 08:18:09;;;;;;;804.47;79.47;;;2.10;99.90;;;0.51;100.00;99447.16;6219871;22;20015;-76
2021/12/29 08:20:38;;;;;;;851.83;81.35;;;2.10;99.90;;;0.57;100.00;99428.88;6207180;22;20008;-76
2021/12/29 08:23:08;;;;;;;1278.15;90.85;;;2.20;99.90;;;0.59;100.00;99426.25;6161196;23;20008;-76
2021/12/29 08:25:35;;;;;;;623.55;71.82;;;2.20;99.90;;;0.63;100.00;99427.88;6161365;22;20016;-76
2021/12/29 08:28:05;;;;;;;696.83;75.28;;;2.20;99.90;;;0.52;100.00;99425.56;6194802;22;20519;-76
2021/12/29 08:30:35;;;;;;;487.58;69.85;;;2.20;99.90;;;0.63;100.00;99442.53;6177335;23;20016;-76
2021/12/29 08:33:01;;;;;;;820.85;79.43;;;2.20;99.90;;;0.69;100.00;99470.88;6143340;23;20011;-76
2021/12/29 08:35:30;;;;;;;1418.53;93.20;;;2.20;99.90;;;0.72;100.00;99463.91;6161015;22;20350;-76
2021/12/29 08:38:04;;;;;;;993.75;82.53;;;2.30;99.90;;;0.74;100.00;99433.63;6180854;22;19997;-76
2021/12/29 08:40:33;;;;;;;1050.00;84.90;;;2.30;99.90;;;0.78;100.00;99455.97;6188966;22;20004;-76
2021/12/29 08:43:04;;;;;;;641.78;75.13;;;2.40;99.90;;;0.82;100.00;99447.22;6167398;22;20004;-76
2021/12/29 08:45:37;;;;;;;676.97;73.47;;;2.40;99.90;;;0.85;100.00;99438.50;6144178;23;20004;-76
2021/12/29 08:48:06;;;;;;;656.72;73.85;;;2.40;99.90;;;0.85;100.00;99438.50;6174954;22;20027;-76
2021/12/29 08:50:44;;;;;;;698.15;73.15;;;2.40;99.90;;;0.84;100.00;99452.34;6220257;22;20516;-77
2021/12/29 08:53:14;;;;;;;598.20;72.68;;;2.40;99.90;;;0.86;100.00;99442.78;6129855;22;20058;-76
2021/12/29 08:55:47;;;;;;;791.60;79.80;;;2.40;99.90;;;0.82;100.00;99428.22;6122184;23;20018;-76
2021/12/29 08:58:22;;;;;;;863.47;79.68;;;2.50;99.90;;;0.84;100.00;99452.34;6187950;22;20036;-76
2021/12/29 09:00:51;;;;;;;539.47;74.88;;;2.40;99.90;;;0.90;100.00;99456.50;6123471;22;20000;-76
2021/12/29 09:03:22;;;;;;;1250.70;89.53;;;2.40;99.90;;;0.82;100.00;99443.75;6143576;22;20412;-77
2021/12/29 09:05:52;;;;;;;595.60;71.72;;;2.40;99.90;;;0.79;100.00;99444.69;6195877;22;20461;-77
2021/12/29 09:08:18;;;;;;;806.78;76.25;;;2.40;99.90;;;0.87;100.00;99454.03;6115597;23;20059;-76
2021/12/29 09:10:51;;;;;;;594.67;70.70;;;2.40;99.90;;;0.94;100.00;99438.25;6150928;22;20402;-76
2021/12/29 09:13:24;;;;;;;849.75;79.38;;;2.50;99.90;;;1.03;100.00;99470.84;6148621;23;20380;-77
2021/12/29 09:15:53;;;;;;;732.42;75.35;;;2.50;99.90;;;1.09;100.00;99449.09;6163090;22;20122;-77
2021/12/29 09:18:21;;;;;;;672.53;75.38;;;2.60;99.90;;;1.14;100.00;99473.13;6174482;22;20138;-77
2021/12/29 09:20:47;;;;;;;486.85;67.38;;;2.70;99.90;;;1.18;100.00;99464.38;6171843;22;20011;-77
2021/12/29 09:23:18;;;;;;;594.13;71.60;;;2.70;99.90;;;1.22;100.00;99473.78;6131416;22;20008;-77
2021/12/29 09:25:55;;;;;;;743.15;70.35;;;2.70;99.90;;;1.26;100.00;99467.59;6125468;22;20043;-77
2021/12/29 09:28:22;;;;;;;480.13;67.80;;;2.70;99.90;;;1.26;100.00;99485.75;6135333;22;20065;-77
2021/12/29 09:31:01;;;;;;;538.45;70.10;;;2.80;99.90;;;1.30;100.00;99482.19;6152527;22;20024;-77
2021/12/29 09:33:38;;;;;;;1011.65;78.22;;;2.80;99.90;;;1.33;100.00;99469.13;6154742;22;20024;-77
2021/12/29 09:36:04;;;;;;;1157.90;80.85;;;2.80;99.90;;;1.35;100.00;99459.56;6169764;22;20014;-77
2021/12/29 09:38:36;;;;;;;622.55;67.50;;;2.90;99.90;;;1.40;100.00;99459.41;6147055;23;20015;-77
2021/12/29 09:41:12;;;;;;;846.67;75.03;;;2.90;99.90;;;1.41;100.00;99443.81;6145854;22;19999;-77
2021/12/29 09:43:39;;;;;;;1521.22;84.93;;;2.80;99.90;;;1.32;100.00;99454.47;6149708;23;20007;-77
2021/12/29 09:46:08;;;;;;;1240.15;76.90;;;2.80;99.90;;;1.09;100.00;99452.53;6129367;22;20004;-77
2021/12/29 09:48:39;;;;;;;1026.00;76.10;;;2.70;99.90;;;1.07;100.00;99432.72;6163363;23;20015;-77
2021/12/29 09:51:11;;;;;;;753.53;70.95;;;2.70;99.90;;;1.08;100.00;99449.97;6117272;22;20027;-77
2021/12/29 09:53:46;;;;;;;586.90;68.88;;;2.70;99.90;;;1.12;100.00;99459.34;6211894;22;20011;-77
2021/12/29 09:56:12;;;;;;;948.28;74.18;;;2.70;99.90;;;1.17;100.00;99460.09;6123904;23;20434;-77
2021/12/29 09:58:42;;;;;;;708.72;70.97;;;2.70;99.90;;;1.20;100.00;99455.66;6113530;23;20013;-77
2021/12/29 10:01:12;;;;;;;969.65;74.63;;;2.70;99.90;;;1.25;100.00;99446.91;6122829;22;20008;-77
2021/12/29 10:03:42;;;;;;;1021.05;73.47;;;2.80;99.90;;;1.29;100.00;99453.69;6138904;22;20039;-77
2021/12/29 10:06:17;;;;;;;640.20;68.75;;;2.80;99.90;;;1.32;100.00;99448.41;6149587;23;20006;-77
2021/12/29 10:08:53;;;;;;;1018.08;76.30;;;2.80;99.90;;;1.29;100.00;99451.94;6152611;22;20004;-78
2021/12/29 10:11:36;;;;;;;802.63;71.88;;;2.80;99.90;;;1.35;100.00;99456.13;6101452;23;20417;-77
2021/12/29 10:14:17;;;;;;;487.17;64.10;;;2.80;99.90;;;1.40;100.00;99447.31;6061855;22;20062;-78
2021/12/29 10:16:52;;;;;;;924.00;74.45;;;2.90;99.90;;;1.38;100.00;99462.06;6145275;22;20289;-78